createdAt,value
2022-08-23T00:00:56.500Z,63.14
2022-08-23T00:01:56.473Z,62.66
2022-08-23T00:02:56.559Z,62.56
2022-08-23T00:04:18.097Z,62.27
2022-08-23T00:05:09.414Z,62.17
2022-08-23T00:05:56.408Z,62.07
2022-08-23T00:06:56.972Z,62.37
2022-08-23T00:07:56.479Z,62.46
2022-08-23T00:08:56.384Z,62.27
2022-08-23T00:10:17.413Z,61.79
2022-08-23T00:10:56.336Z,62.27
2022-08-23T00:11:56.361Z,61.98
2022-08-23T00:12:56.301Z,62.27
2022-08-23T00:13:56.289Z,62.66
2022-08-23T00:14:56.285Z,62.37
2022-08-23T00:16:17.265Z,62.85
2022-08-23T00:16:56.256Z,62.75
2022-08-23T00:17:56.231Z,62.75
2022-08-23T00:18:56.213Z,62.56
2022-08-23T00:19:56.185Z,62.56
2022-08-23T00:20:56.209Z,62.46
2022-08-23T00:22:17.189Z,62.27
2022-08-23T00:22:56.183Z,62.17
2022-08-23T00:23:56.163Z,62.56
2022-08-23T00:24:57.018Z,62.56
2022-08-23T00:25:56.156Z,62.46
2022-08-23T00:26:56.085Z,62.56
2022-08-23T00:28:17.087Z,62.56
2022-08-23T00:28:56.977Z,62.66
2022-08-23T00:29:56.102Z,62.17
2022-08-23T00:30:56.024Z,62.07
2022-08-23T00:31:56.062Z,62.37
2022-08-23T00:32:57.979Z,62.17
2022-08-23T00:34:16.999Z,62.07
2022-08-23T00:34:55.975Z,62.66
2022-08-23T00:35:55.940Z,62.37
2022-08-23T00:36:56.008Z,62.46
2022-08-23T00:38:10.583Z,62.75
2022-08-23T00:38:55.915Z,62.85
2022-08-23T00:40:16.929Z,63.04
2022-08-23T00:40:55.869Z,62.56
2022-08-23T00:41:55.857Z,62.56
2022-08-23T00:42:55.836Z,62.46
2022-08-23T00:43:55.859Z,62.66
2022-08-23T00:44:55.803Z,62.07
2022-08-23T00:46:16.805Z,62.07
2022-08-23T00:46:55.775Z,62.37
2022-08-23T00:47:56.545Z,62.27
2022-08-23T00:48:55.738Z,62.37
2022-08-23T00:49:55.730Z,62.37
2022-08-23T00:50:55.712Z,61.88
2022-08-23T00:52:16.722Z,61.88
2022-08-23T00:52:55.675Z,62.07
2022-08-23T00:53:55.660Z,61.69
2022-08-23T00:54:55.669Z,61.79
2022-08-23T00:55:55.658Z,62.27
2022-08-23T00:56:55.628Z,62.66
2022-08-23T00:58:16.629Z,62.56
2022-08-23T00:58:55.589Z,62.95
2022-08-23T00:59:55.594Z,62.37
2022-08-23T01:00:55.551Z,62.95
2022-08-23T01:01:55.609Z,62.85
2022-08-23T01:02:55.518Z,62.66
2022-08-23T01:04:16.514Z,63.14
2022-08-23T01:04:55.503Z,63.14
2022-08-23T01:05:55.503Z,63.43
2022-08-23T01:06:55.484Z,63.34
2022-08-23T01:07:55.547Z,63.34
2022-08-23T01:08:55.523Z,63.82
2022-08-23T01:10:19.236Z,63.82
2022-08-23T01:10:56.006Z,63.82
2022-08-23T01:11:55.418Z,63.53
2022-08-23T01:12:55.376Z,63.72
2022-08-23T01:13:55.358Z,63.53
2022-08-23T01:14:55.336Z,63.43
2022-08-23T01:16:17.002Z,63.53
2022-08-23T01:16:55.300Z,63.43
2022-08-23T01:17:55.352Z,63.53
2022-08-23T01:18:55.304Z,63.34
2022-08-23T01:19:55.267Z,63.62
2022-08-23T01:20:55.278Z,63.43
2022-08-23T01:22:16.228Z,63.62
2022-08-23T01:22:55.239Z,63.43
2022-08-23T01:23:55.193Z,63.92
2022-08-23T01:25:07.762Z,63.43
2022-08-23T01:25:55.165Z,63.53
2022-08-23T01:26:55.186Z,63.46
2022-08-23T01:28:16.152Z,63.72
2022-08-23T01:28:55.141Z,64.01
2022-08-23T01:29:55.105Z,64.04
2022-08-23T01:30:55.085Z,64.14
2022-08-23T01:31:55.100Z,63.75
2022-08-23T01:32:55.053Z,64.14
2022-08-23T01:34:16.048Z,64.24
2022-08-23T01:34:55.022Z,64.34
2022-08-23T01:35:55.020Z,64.24
2022-08-23T01:36:55.004Z,64.34
2022-08-23T01:37:55.007Z,64.24
2022-08-23T01:38:54.958Z,64.24
2022-08-23T01:40:16.006Z,64.53
2022-08-23T01:40:55.029Z,64.53
2022-08-23T01:41:54.939Z,64.53
2022-08-23T01:42:55.538Z,64.34
2022-08-23T01:43:54.893Z,64.34
2022-08-23T01:44:54.879Z,64.62
2022-08-23T01:46:15.894Z,64.53
2022-08-23T01:46:57.964Z,64.14
2022-08-23T01:47:54.875Z,64.43
2022-08-23T01:48:54.808Z,64.14
2022-08-23T01:49:54.813Z,64.53
2022-08-23T01:50:54.821Z,64.34
2022-08-23T01:52:15.786Z,64.34
2022-08-23T01:52:54.754Z,64.53
2022-08-23T01:53:54.733Z,64.62
2022-08-23T01:54:54.723Z,64.14
2022-08-23T01:55:54.704Z,64.14
2022-08-23T01:56:55.523Z,64.04
2022-08-23T01:58:15.673Z,63.95
2022-08-23T01:58:55.535Z,64.04
2022-08-23T01:59:54.647Z,63.95
2022-08-23T02:00:54.632Z,64.34
2022-08-23T02:01:54.709Z,64.34
2022-08-23T02:02:54.594Z,64.04
2022-08-23T02:04:15.587Z,64.34
2022-08-23T02:04:54.578Z,64.04
2022-08-23T02:05:55.533Z,64.04
2022-08-23T02:06:54.540Z,64.14
2022-08-23T02:07:54.526Z,64.14
2022-08-23T02:08:54.501Z,64.37
2022-08-23T02:10:15.516Z,64.37
2022-08-23T02:10:54.495Z,64.17
2022-08-23T02:11:54.455Z,64.17
2022-08-23T02:12:54.461Z,64.27
2022-08-23T02:13:54.454Z,63.98
2022-08-23T02:14:54.418Z,63.78
2022-08-23T02:16:16.027Z,63.65
2022-08-23T02:17:04.292Z,63.98
2022-08-23T02:17:54.382Z,63.37
2022-08-23T02:18:54.369Z,63.49
2022-08-23T02:19:55.060Z,63.85
2022-08-23T02:20:54.341Z,63.65
2022-08-23T02:22:15.318Z,63.10
2022-08-23T02:22:54.346Z,63.20
2022-08-23T02:23:54.281Z,63.37
2022-08-23T02:24:54.299Z,63.20
2022-08-23T02:25:54.241Z,63.20
2022-08-23T02:26:56.626Z,63.07
2022-08-23T02:28:15.212Z,63.10
2022-08-23T02:28:56.399Z,63.85
2022-08-23T02:29:54.182Z,63.37
2022-08-23T02:30:54.167Z,63.27
2022-08-23T02:31:54.181Z,63.85
2022-08-23T02:32:54.166Z,63.78
2022-08-23T02:34:15.157Z,63.56
2022-08-23T02:35:05.105Z,63.46
2022-08-23T02:35:54.117Z,63.56
2022-08-23T02:36:54.079Z,63.46
2022-08-23T02:37:54.063Z,63.65
2022-08-23T02:38:54.085Z,64.24
2022-08-23T02:40:15.090Z,64.14
2022-08-23T02:41:00.633Z,63.95
2022-08-23T02:41:54.022Z,64.24
2022-08-23T02:42:53.993Z,64.24
2022-08-23T02:43:53.967Z,64.53
2022-08-23T02:44:53.957Z,64.53
2022-08-23T02:46:14.980Z,64.34
2022-08-23T02:46:53.945Z,64.14
2022-08-23T02:47:53.927Z,64.14
2022-08-23T02:48:53.893Z,64.82
2022-08-23T02:49:53.886Z,64.62
2022-08-23T02:50:53.865Z,64.43
2022-08-23T02:52:14.873Z,64.92
2022-08-23T02:52:53.881Z,64.62
2022-08-23T02:53:53.824Z,65.01
2022-08-23T02:54:53.809Z,64.43
2022-08-23T02:55:53.817Z,64.43
2022-08-23T02:56:54.547Z,64.53
2022-08-23T02:58:14.777Z,64.04
2022-08-23T02:58:54.430Z,64.14
2022-08-23T02:59:53.728Z,64.72
2022-08-23T03:00:53.709Z,64.53
2022-08-23T03:01:53.736Z,64.53
2022-08-23T03:02:53.672Z,64.43
2022-08-23T03:04:14.683Z,64.34
2022-08-23T03:04:53.667Z,64.43
2022-08-23T03:05:53.638Z,64.62
2022-08-23T03:06:53.615Z,64.92
2022-08-23T03:07:53.611Z,64.62
2022-08-23T03:08:53.607Z,64.62
2022-08-23T03:10:14.577Z,64.43
2022-08-23T03:10:54.050Z,64.34
2022-08-23T03:11:53.547Z,64.43
2022-08-23T03:12:53.533Z,64.43
2022-08-23T03:13:53.550Z,64.72
2022-08-23T03:14:53.498Z,64.62
2022-08-23T03:16:15.056Z,64.92
2022-08-23T03:16:53.458Z,64.72
2022-08-23T03:17:53.455Z,64.82
2022-08-23T03:18:53.442Z,64.53
2022-08-23T03:19:54.076Z,64.53
2022-08-23T03:20:53.406Z,64.34
2022-08-23T03:22:14.408Z,64.72
2022-08-23T03:22:53.365Z,64.82
2022-08-23T03:23:53.374Z,64.82
2022-08-23T03:24:53.379Z,64.82
2022-08-23T03:25:53.338Z,65.01
2022-08-23T03:26:53.327Z,65.01
2022-08-23T03:28:14.305Z,65.11
2022-08-23T03:28:53.282Z,64.72
2022-08-23T03:29:53.284Z,65.01
2022-08-23T03:30:53.253Z,65.11
2022-08-23T03:31:53.851Z,65.01
2022-08-23T03:32:53.242Z,65.01
2022-08-23T03:34:14.207Z,65.01
2022-08-23T03:34:53.243Z,65.01
2022-08-23T03:35:53.179Z,64.92
2022-08-23T03:36:53.167Z,64.92
2022-08-23T03:37:55.244Z,65.30
2022-08-23T03:38:53.146Z,65.20
2022-08-23T03:40:14.189Z,65.01
2022-08-23T03:40:53.095Z,64.82
2022-08-23T03:41:53.113Z,64.72
2022-08-23T03:42:53.074Z,64.72
2022-08-23T03:43:53.051Z,65.11
2022-08-23T03:44:57.065Z,64.82
2022-08-23T03:46:14.039Z,65.01
2022-08-23T03:46:53.030Z,65.01
2022-08-23T03:47:53.036Z,65.11
2022-08-23T03:48:52.989Z,65.30
2022-08-23T03:49:52.974Z,65.11
2022-08-23T03:50:54.649Z,65.01
2022-08-23T03:52:14.044Z,65.40
2022-08-23T03:52:52.904Z,65.40
2022-08-23T03:53:52.896Z,65.40
2022-08-23T03:54:52.945Z,65.11
2022-08-23T03:55:52.885Z,65.20
2022-08-23T03:56:52.860Z,65.59
2022-08-23T03:58:13.886Z,65.40
2022-08-23T03:58:52.823Z,65.40
2022-08-23T03:59:52.890Z,65.59
2022-08-23T04:00:52.803Z,65.79
2022-08-23T04:01:52.920Z,65.79
2022-08-23T04:02:52.754Z,65.79
2022-08-23T04:04:13.747Z,65.89
2022-08-23T04:04:52.733Z,65.69
2022-08-23T04:05:53.590Z,65.79
2022-08-23T04:06:52.697Z,65.69
2022-08-23T04:07:52.688Z,65.69
2022-08-23T04:08:52.673Z,65.79
2022-08-23T04:10:13.672Z,65.69
2022-08-23T04:10:52.651Z,65.69
2022-08-23T04:11:52.678Z,65.59
2022-08-23T04:12:52.632Z,65.69
2022-08-23T04:13:52.602Z,65.79
2022-08-23T04:14:52.616Z,65.79
2022-08-23T04:16:13.577Z,65.79
2022-08-23T04:16:52.537Z,65.79
2022-08-23T04:17:52.561Z,65.79
2022-08-23T04:18:52.517Z,65.59
2022-08-23T04:19:53.086Z,65.69
2022-08-23T04:20:52.484Z,65.89
2022-08-23T04:22:13.466Z,65.59
2022-08-23T04:22:52.540Z,65.82
2022-08-23T04:23:52.461Z,65.79
2022-08-23T04:24:52.463Z,65.82
2022-08-23T04:25:52.433Z,65.69
2022-08-23T04:26:52.406Z,65.92
2022-08-23T04:28:13.386Z,66.02
2022-08-23T04:28:52.985Z,65.82
2022-08-23T04:29:52.340Z,66.02
2022-08-23T04:30:52.326Z,66.02
2022-08-23T04:31:52.382Z,66.30
2022-08-23T04:32:52.313Z,66.11
2022-08-23T04:34:13.286Z,66.30
2022-08-23T04:34:52.323Z,66.20
2022-08-23T04:35:52.259Z,66.11
2022-08-23T04:36:55.293Z,66.02
2022-08-23T04:37:52.245Z,66.11
2022-08-23T04:38:52.246Z,65.92
2022-08-23T04:40:13.243Z,65.92
2022-08-23T04:40:52.193Z,66.02
2022-08-23T04:41:52.167Z,65.53
2022-08-23T04:42:52.177Z,66.11
2022-08-23T04:43:52.132Z,66.11
2022-08-23T04:44:52.129Z,66.11
2022-08-23T04:46:13.117Z,66.11
2022-08-23T04:46:52.098Z,66.11
2022-08-23T04:47:52.115Z,66.11
2022-08-23T04:48:52.059Z,66.20
2022-08-23T04:49:52.051Z,66.34
2022-08-23T04:50:52.025Z,66.24
2022-08-23T04:52:16.168Z,66.44
2022-08-23T04:52:52.039Z,66.14
2022-08-23T04:53:51.973Z,66.63
2022-08-23T04:54:52.004Z,66.44
2022-08-23T04:55:51.959Z,66.14
2022-08-23T04:56:52.074Z,66.14
2022-08-23T04:58:12.975Z,66.17
2022-08-23T04:58:51.926Z,66.08
2022-08-23T04:59:51.964Z,66.14
2022-08-23T05:00:51.971Z,65.98
2022-08-23T05:01:54.663Z,65.79
2022-08-23T05:02:51.916Z,65.89
2022-08-23T05:04:12.954Z,65.79
2022-08-23T05:04:51.824Z,65.89
2022-08-23T05:05:51.836Z,65.79
2022-08-23T05:06:51.873Z,65.79
2022-08-23T05:07:51.831Z,65.89
2022-08-23T05:08:52.665Z,65.89
2022-08-23T05:10:13.016Z,65.89
2022-08-23T05:10:51.799Z,65.79
2022-08-23T05:11:51.750Z,65.69
2022-08-23T05:12:51.756Z,65.98
2022-08-23T05:13:51.717Z,66.08
2022-08-23T05:14:51.718Z,65.79
2022-08-23T05:16:12.681Z,65.98
2022-08-23T05:16:51.634Z,65.79
2022-08-23T05:17:51.639Z,65.59
2022-08-23T05:18:51.606Z,65.89
2022-08-23T05:19:51.610Z,65.89
2022-08-23T05:20:51.618Z,65.69
2022-08-23T05:22:12.557Z,65.98
2022-08-23T05:22:51.571Z,65.89
2022-08-23T05:23:54.708Z,66.08
2022-08-23T05:24:51.555Z,65.79
2022-08-23T05:25:53.246Z,65.82
2022-08-23T05:26:51.548Z,65.92
2022-08-23T05:28:12.494Z,66.02
2022-08-23T05:28:51.477Z,65.72
2022-08-23T05:29:51.464Z,65.53
2022-08-23T05:30:56.516Z,65.72
2022-08-23T05:31:51.430Z,65.63
2022-08-23T05:32:51.440Z,65.43
2022-08-23T05:34:12.399Z,65.53
2022-08-23T05:34:51.399Z,65.63
2022-08-23T05:35:51.402Z,65.53
2022-08-23T05:36:55.803Z,65.63
2022-08-23T05:37:51.355Z,65.72
2022-08-23T05:38:51.326Z,65.63
2022-08-23T05:40:12.376Z,65.82
2022-08-23T05:40:54.881Z,65.53
2022-08-23T05:41:51.344Z,65.53
2022-08-23T05:42:51.356Z,65.63
2022-08-23T05:43:51.259Z,65.56
2022-08-23T05:44:52.129Z,65.82
2022-08-23T05:46:13.001Z,65.27
2022-08-23T05:46:51.315Z,65.27
2022-08-23T05:47:51.195Z,65.17
2022-08-23T05:48:51.234Z,65.08
2022-08-23T05:49:51.203Z,65.17
2022-08-23T05:50:51.210Z,65.08
2022-08-23T05:52:12.201Z,65.08
2022-08-23T05:52:51.365Z,65.37
2022-08-23T05:53:51.669Z,65.37
2022-08-23T05:54:51.144Z,65.75
2022-08-23T05:55:51.083Z,65.85
2022-08-23T05:56:51.142Z,65.37
2022-08-23T05:58:12.135Z,65.59
2022-08-23T05:58:51.074Z,65.37
2022-08-23T05:59:51.013Z,65.20
2022-08-23T06:00:51.044Z,65.59
2022-08-23T06:01:51.645Z,65.01
2022-08-23T06:02:50.984Z,65.01
2022-08-23T06:04:12.067Z,65.30
2022-08-23T06:04:54.397Z,65.20
2022-08-23T06:05:50.971Z,64.91
2022-08-23T06:06:50.951Z,64.91
2022-08-23T06:07:50.925Z,64.95
2022-08-23T06:08:51.651Z,65.14
2022-08-23T06:10:16.079Z,65.43
2022-08-23T06:10:50.872Z,65.23
2022-08-23T06:11:50.870Z,65.33
2022-08-23T06:12:50.893Z,65.33
2022-08-23T06:13:50.919Z,65.14
2022-08-23T06:14:50.849Z,65.43
2022-08-23T06:16:14.805Z,65.23
2022-08-23T06:16:54.861Z,65.23
2022-08-23T06:17:50.914Z,64.98
2022-08-23T06:18:51.699Z,64.78
2022-08-23T06:19:50.812Z,64.78
2022-08-23T06:20:50.839Z,65.08
2022-08-23T06:22:11.792Z,64.59
2022-08-23T06:22:50.748Z,64.59
2022-08-23T06:23:51.677Z,64.69
2022-08-23T06:24:50.696Z,64.88
2022-08-23T06:25:50.669Z,64.78
2022-08-23T06:26:50.703Z,64.59
2022-08-23T06:28:11.632Z,64.78
2022-08-23T06:28:51.331Z,64.78
2022-08-23T06:29:50.615Z,64.91
2022-08-23T06:30:50.685Z,64.81
2022-08-23T06:31:50.580Z,65.20
2022-08-23T06:32:50.664Z,64.72
2022-08-23T06:34:11.668Z,64.42
2022-08-23T06:34:50.576Z,64.36
2022-08-23T06:35:50.562Z,65.04
2022-08-23T06:36:50.539Z,64.65
2022-08-23T06:37:50.602Z,64.84
2022-08-23T06:38:51.200Z,64.94
2022-08-23T06:40:11.597Z,65.04
2022-08-23T06:40:50.497Z,64.36
2022-08-23T06:41:51.061Z,64.65
2022-08-23T06:42:50.484Z,64.26
2022-08-23T06:43:51.181Z,64.26
2022-08-23T06:44:50.443Z,64.36
2022-08-23T06:46:11.637Z,64.55
2022-08-23T06:46:50.452Z,64.49
2022-08-23T06:47:50.375Z,64.78
2022-08-23T06:48:50.386Z,64.29
2022-08-23T06:49:57.511Z,64.49
2022-08-23T06:50:50.382Z,64.10
2022-08-23T06:52:11.393Z,64.39
2022-08-23T06:52:50.296Z,64.39
2022-08-23T06:53:50.311Z,64.39
2022-08-23T06:54:50.311Z,64.59
2022-08-23T06:55:50.260Z,64.20
2022-08-23T06:56:50.264Z,64.29
2022-08-23T06:58:12.544Z,64.23
2022-08-23T06:58:50.249Z,63.64
2022-08-23T06:59:50.347Z,63.64
2022-08-23T07:00:54.177Z,64.13
2022-08-23T07:01:50.498Z,63.93
2022-08-23T07:02:50.525Z,63.84
2022-08-23T07:04:11.498Z,63.84
2022-08-23T07:04:51.107Z,64.03
2022-08-23T07:05:50.534Z,64.13
2022-08-23T07:06:50.617Z,63.74
2022-08-23T07:07:50.597Z,63.84
2022-08-23T07:08:50.502Z,63.64
2022-08-23T07:10:11.433Z,64.13
2022-08-23T07:10:51.336Z,63.93
2022-08-23T07:11:50.287Z,63.93
2022-08-23T07:12:50.367Z,63.93
2022-08-23T07:13:50.434Z,64.26
2022-08-23T07:14:50.395Z,63.87
2022-08-23T07:16:11.810Z,64.16
2022-08-23T07:16:50.188Z,64.06
2022-08-23T07:17:50.212Z,63.70
2022-08-23T07:18:50.256Z,63.70
2022-08-23T07:19:50.397Z,63.31
2022-08-23T07:20:50.484Z,63.15
2022-08-23T07:22:11.521Z,62.85
2022-08-23T07:22:50.357Z,62.27
2022-08-23T07:23:50.321Z,62.60
2022-08-23T07:24:50.292Z,62.30
2022-08-23T07:25:52.109Z,62.01
2022-08-23T07:26:50.342Z,62.04
2022-08-23T07:28:11.861Z,61.45
2022-08-23T07:28:50.206Z,61.77
2022-08-23T07:29:50.226Z,61.29
2022-08-23T07:30:50.347Z,61.19
2022-08-23T07:31:50.297Z,61.09
2022-08-23T07:32:50.294Z,60.63
2022-08-23T07:34:11.100Z,60.63
2022-08-23T07:34:50.054Z,60.44
2022-08-23T07:35:50.266Z,60.44
2022-08-23T07:36:50.090Z,60.34
2022-08-23T07:37:49.913Z,60.53
2022-08-23T07:38:51.638Z,59.85
2022-08-23T07:40:10.933Z,59.75
2022-08-23T07:40:54.057Z,59.98
2022-08-23T07:41:49.765Z,59.78
2022-08-23T07:42:49.800Z,59.88
2022-08-23T07:43:49.715Z,59.29
2022-08-23T07:46:12.586Z,58.90
2022-08-23T07:46:49.733Z,58.90
2022-08-23T07:47:50.625Z,58.70
2022-08-23T07:48:55.603Z,57.24
2022-08-23T07:49:49.659Z,57.34
2022-08-23T07:52:21.749Z,57.43
2022-08-23T07:53:27.540Z,57.34
2022-08-23T07:54:21.679Z,57.34
2022-08-23T07:55:21.756Z,57.43
2022-08-23T07:56:21.748Z,56.56
2022-08-23T07:57:21.612Z,57.07
2022-08-23T07:58:21.761Z,57.07
2022-08-23T07:59:21.588Z,57.17
2022-08-23T08:00:21.603Z,57.26
2022-08-23T08:01:21.633Z,57.26
2022-08-23T08:02:21.592Z,57.17
2022-08-23T08:03:21.545Z,57.36
2022-08-23T08:04:21.537Z,57.00
2022-08-23T08:05:22.044Z,56.61
2022-08-23T08:06:21.541Z,56.81
2022-08-23T08:07:21.680Z,56.81
2022-08-23T08:08:21.526Z,56.90
2022-08-23T08:09:21.483Z,56.61
2022-08-23T08:10:21.481Z,56.71
2022-08-23T08:11:21.460Z,56.51
2022-08-23T08:12:21.471Z,56.02
2022-08-23T08:13:21.453Z,56.05
2022-08-23T08:14:21.432Z,56.15
2022-08-23T08:15:21.424Z,56.15
2022-08-23T08:16:21.444Z,55.46
2022-08-23T08:17:26.823Z,55.66
2022-08-23T08:18:21.432Z,55.76
2022-08-23T08:19:21.412Z,55.76
2022-08-23T08:20:21.402Z,55.46
2022-08-23T08:21:21.362Z,55.49
2022-08-23T08:22:21.355Z,55.66
2022-08-23T08:23:21.342Z,54.97
2022-08-23T08:24:21.337Z,54.48
2022-08-23T08:25:21.320Z,54.38
2022-08-23T08:26:21.358Z,54.19
2022-08-23T08:27:21.651Z,54.38
2022-08-23T08:28:21.274Z,54.28
2022-08-23T08:29:21.273Z,54.68
2022-08-23T08:30:21.376Z,54.68
2022-08-23T08:31:21.342Z,54.97
2022-08-23T08:32:21.237Z,54.41
2022-08-23T08:33:21.294Z,54.11
2022-08-23T08:34:21.211Z,53.72
2022-08-23T08:35:21.211Z,53.53
2022-08-23T08:36:21.214Z,53.72
2022-08-23T08:37:21.257Z,53.23
2022-08-23T08:38:21.169Z,52.84
2022-08-23T08:39:21.162Z,52.74
2022-08-23T08:40:21.239Z,52.84
2022-08-23T08:41:21.155Z,51.96
2022-08-23T08:42:21.145Z,51.86
2022-08-23T08:43:21.162Z,52.35
2022-08-23T08:44:21.312Z,52.55
2022-08-23T08:45:21.102Z,52.18
2022-08-23T08:46:21.208Z,51.79
2022-08-23T08:47:21.092Z,51.86
2022-08-23T08:48:21.091Z,51.86
2022-08-23T08:49:21.075Z,51.76
2022-08-23T08:50:21.042Z,51.76
2022-08-23T08:51:21.034Z,52.06
2022-08-23T08:52:21.025Z,51.86
2022-08-23T08:53:21.028Z,51.86
2022-08-23T08:54:21.023Z,51.96
2022-08-23T08:55:20.998Z,51.59
2022-08-23T08:56:20.982Z,51.86
2022-08-23T08:57:25.221Z,51.79
2022-08-23T08:58:20.959Z,51.56
2022-08-23T08:59:20.964Z,51.76
2022-08-23T09:00:20.975Z,52.25
2022-08-23T09:01:21.097Z,52.25
2022-08-23T09:02:32.068Z,52.25
2022-08-23T09:03:20.981Z,52.84
2022-08-23T09:04:20.904Z,52.67
2022-08-23T09:05:20.902Z,52.57
2022-08-23T09:06:20.888Z,52.67
2022-08-23T09:07:20.913Z,52.74
2022-08-23T09:08:20.868Z,52.76
2022-08-23T09:09:20.860Z,52.57
2022-08-23T09:10:20.836Z,52.67
2022-08-23T09:11:20.852Z,53.36
2022-08-23T09:12:20.848Z,52.86
2022-08-23T09:13:20.840Z,52.86
2022-08-23T09:14:20.798Z,53.16
2022-08-23T09:15:20.786Z,53.26
2022-08-23T09:16:20.811Z,52.47
2022-08-23T09:17:20.914Z,52.67
2022-08-23T09:18:20.773Z,52.57
2022-08-23T09:19:20.783Z,52.57
2022-08-23T09:20:20.791Z,52.47
2022-08-23T09:21:20.734Z,52.28
2022-08-23T09:22:20.717Z,51.89
2022-08-23T09:23:20.703Z,51.79
2022-08-23T09:24:20.702Z,51.98
2022-08-23T09:25:20.679Z,51.69
2022-08-23T09:26:20.682Z,51.20
2022-08-23T09:27:20.662Z,51.10
2022-08-23T09:28:20.684Z,51.49
2022-08-23T09:29:20.670Z,51.20
2022-08-23T09:30:20.652Z,52.01
2022-08-23T09:31:20.709Z,51.69
2022-08-23T09:32:20.630Z,51.89
2022-08-23T09:33:20.595Z,51.79
2022-08-23T09:34:20.596Z,51.79
2022-08-23T09:35:20.603Z,51.98
2022-08-23T09:36:20.604Z,51.00
2022-08-23T09:37:20.592Z,51.00
2022-08-23T09:38:20.632Z,51.20
2022-08-23T09:39:20.533Z,51.29
2022-08-23T09:40:20.556Z,51.29
2022-08-23T09:41:20.533Z,50.90
2022-08-23T09:42:20.508Z,51.76
2022-08-23T09:43:20.495Z,51.66
2022-08-23T09:44:20.492Z,51.46
2022-08-23T09:45:20.471Z,52.08
2022-08-23T09:46:20.487Z,51.56
2022-08-23T09:47:20.476Z,51.98
2022-08-23T09:48:20.461Z,51.86
2022-08-23T09:49:20.478Z,52.06
2022-08-23T09:50:20.464Z,52.18
2022-08-23T09:51:20.429Z,52.37
2022-08-23T09:52:22.333Z,52.47
2022-08-23T09:53:20.408Z,52.18
2022-08-23T09:54:20.420Z,51.98
2022-08-23T09:55:20.371Z,52.01
2022-08-23T09:56:20.378Z,51.59
2022-08-23T09:57:20.380Z,51.89
2022-08-23T09:58:20.355Z,51.59
2022-08-23T09:59:20.359Z,51.89
2022-08-23T10:00:20.334Z,52.28
2022-08-23T10:01:20.375Z,52.40
2022-08-23T10:02:20.305Z,51.98
2022-08-23T10:03:20.360Z,52.37
2022-08-23T10:04:20.343Z,52.28
2022-08-23T10:05:20.277Z,52.67
2022-08-23T10:06:20.302Z,52.57
2022-08-23T10:07:20.249Z,52.57
2022-08-23T10:08:20.249Z,52.67
2022-08-23T10:09:20.227Z,52.86
2022-08-23T10:10:20.227Z,52.76
2022-08-23T10:11:20.230Z,52.86
2022-08-23T10:12:20.218Z,52.57
2022-08-23T10:13:20.838Z,52.76
2022-08-23T10:14:20.179Z,52.57
2022-08-23T10:15:20.204Z,52.67
2022-08-23T10:16:20.262Z,52.67
2022-08-23T10:17:20.184Z,52.57
2022-08-23T10:18:20.174Z,52.67
2022-08-23T10:19:20.168Z,53.45
2022-08-23T10:20:20.164Z,53.33
2022-08-23T10:21:23.786Z,53.16
2022-08-23T10:22:20.841Z,53.13
2022-08-23T10:23:20.120Z,53.43
2022-08-23T10:24:21.005Z,53.65
2022-08-23T10:25:20.250Z,53.33
2022-08-23T10:26:20.270Z,53.03
2022-08-23T10:27:20.241Z,53.16
2022-08-23T10:28:20.192Z,53.26
2022-08-23T10:29:20.261Z,53.94
2022-08-23T10:30:20.165Z,53.65
2022-08-23T10:31:20.276Z,53.45
2022-08-23T10:32:20.207Z,53.45
2022-08-23T10:33:20.180Z,53.55
2022-08-23T10:34:20.185Z,53.58
2022-08-23T10:35:20.174Z,53.58
2022-08-23T10:36:20.114Z,53.48
2022-08-23T10:37:20.118Z,53.97
2022-08-23T10:38:20.048Z,53.38
2022-08-23T10:39:20.132Z,53.67
2022-08-23T10:40:20.174Z,53.58
2022-08-23T10:41:20.138Z,53.36
2022-08-23T10:42:20.060Z,53.16
2022-08-23T10:43:19.984Z,53.36
2022-08-23T10:44:19.968Z,53.75
2022-08-23T10:45:19.876Z,53.75
2022-08-23T10:46:19.952Z,53.55
2022-08-23T10:47:19.869Z,53.45
2022-08-23T10:48:21.270Z,53.63
2022-08-23T10:49:19.877Z,53.72
2022-08-23T10:50:19.805Z,54.21
2022-08-23T10:51:23.161Z,54.50
2022-08-23T10:52:19.805Z,54.90
2022-08-23T10:53:19.783Z,54.83
2022-08-23T10:54:19.761Z,55.10
2022-08-23T10:55:19.754Z,55.78
2022-08-23T10:56:19.737Z,55.91
2022-08-23T10:57:19.757Z,56.07
2022-08-23T10:58:19.737Z,55.88
2022-08-23T10:59:19.738Z,55.98
2022-08-23T11:00:19.738Z,56.07
2022-08-23T11:01:19.797Z,56.20
2022-08-23T11:02:19.748Z,56.30
2022-08-23T11:03:19.678Z,56.67
2022-08-23T11:04:19.692Z,56.47
2022-08-23T11:05:19.683Z,56.27
2022-08-23T11:06:19.633Z,56.79
2022-08-23T11:07:19.640Z,56.86
2022-08-23T11:08:19.614Z,56.86
2022-08-23T11:09:19.603Z,57.15
2022-08-23T11:10:19.616Z,57.25
2022-08-23T11:11:19.625Z,57.35
2022-08-23T11:12:19.604Z,57.54
2022-08-23T11:13:19.606Z,57.25
2022-08-23T11:14:19.547Z,57.25
2022-08-23T11:15:19.545Z,57.84
2022-08-23T11:16:19.595Z,57.54
2022-08-23T11:17:19.558Z,57.64
2022-08-23T11:18:19.511Z,57.62
2022-08-23T11:19:19.503Z,57.42
2022-08-23T11:20:19.483Z,57.42
2022-08-23T11:21:19.492Z,57.52
2022-08-23T11:22:19.490Z,57.22
2022-08-23T11:23:19.485Z,57.42
2022-08-23T11:24:19.447Z,57.42
2022-08-23T11:25:19.437Z,57.42
2022-08-23T11:26:19.430Z,57.32
2022-08-23T11:27:19.423Z,57.42
2022-08-23T11:28:19.429Z,57.81
2022-08-23T11:29:19.401Z,57.12
2022-08-23T11:30:19.432Z,57.12
2022-08-23T11:31:19.386Z,56.63
2022-08-23T11:32:19.361Z,57.12
2022-08-23T11:33:19.368Z,57.12
2022-08-23T11:34:19.348Z,57.52
2022-08-23T11:35:19.362Z,57.32
2022-08-23T11:36:19.321Z,57.32
2022-08-23T11:37:19.323Z,57.32
2022-08-23T11:38:22.613Z,57.22
2022-08-23T11:39:24.579Z,57.32
2022-08-23T11:40:19.407Z,56.93
2022-08-23T11:41:19.284Z,56.73
2022-08-23T11:42:19.299Z,56.83
2022-08-23T11:43:19.245Z,56.24
2022-08-23T11:44:19.229Z,56.63
2022-08-23T11:45:19.245Z,56.24
2022-08-23T11:46:19.261Z,55.36
2022-08-23T11:47:19.249Z,54.68
2022-08-23T11:48:19.191Z,54.48
2022-08-23T11:49:19.175Z,54.77
2022-08-23T11:50:19.175Z,54.87
2022-08-23T11:51:19.174Z,54.68
2022-08-23T11:52:19.163Z,54.87
2022-08-23T11:53:19.136Z,54.77
2022-08-23T11:54:19.169Z,54.87
2022-08-23T11:55:19.117Z,54.28
2022-08-23T11:56:19.114Z,54.21
2022-08-23T11:57:19.122Z,54.70
2022-08-23T11:58:19.102Z,54.02
2022-08-23T11:59:19.078Z,54.28
2022-08-23T12:00:20.944Z,54.28
2022-08-23T12:01:19.048Z,53.72
2022-08-23T12:02:19.190Z,53.82
2022-08-23T12:03:19.229Z,53.63
2022-08-23T12:04:19.047Z,53.72
2022-08-23T12:05:19.034Z,53.53
2022-08-23T12:06:19.052Z,53.82
2022-08-23T12:07:18.985Z,53.63
2022-08-23T12:08:18.985Z,53.53
2022-08-23T12:09:18.992Z,53.72
2022-08-23T12:10:18.986Z,53.43
2022-08-23T12:11:18.949Z,54.02
2022-08-23T12:12:18.936Z,53.63
2022-08-23T12:13:18.925Z,53.82
2022-08-23T12:14:18.928Z,54.31
2022-08-23T12:15:18.917Z,54.50
2022-08-23T12:16:18.986Z,54.50
2022-08-23T12:17:19.299Z,54.41
2022-08-23T12:18:24.978Z,54.50
2022-08-23T12:19:18.861Z,54.70
2022-08-23T12:20:18.862Z,54.50
2022-08-23T12:21:18.873Z,54.31
2022-08-23T12:22:18.853Z,54.50
2022-08-23T12:23:18.846Z,54.60
2022-08-23T12:24:18.815Z,54.41
2022-08-23T12:25:18.800Z,54.50
2022-08-23T12:26:18.803Z,54.41
2022-08-23T12:27:18.898Z,54.41
2022-08-23T12:28:18.796Z,54.02
2022-08-23T12:29:18.820Z,53.72
2022-08-23T12:30:18.751Z,53.92
2022-08-23T12:31:18.913Z,53.82
2022-08-23T12:32:18.741Z,54.11
2022-08-23T12:33:18.741Z,53.20
2022-08-23T12:34:18.740Z,53.50
2022-08-23T12:35:18.699Z,53.59
2022-08-23T12:36:18.685Z,53.59
2022-08-23T12:37:18.673Z,53.50
2022-08-23T12:38:18.680Z,53.50
2022-08-23T12:39:18.679Z,53.69
2022-08-23T12:40:18.675Z,54.09
2022-08-23T12:41:18.645Z,54.09
2022-08-23T12:42:18.614Z,53.86
2022-08-23T12:43:22.478Z,53.99
2022-08-23T12:44:18.623Z,53.57
2022-08-23T12:45:18.613Z,53.69
2022-08-23T12:46:18.605Z,54.09
2022-08-23T12:47:18.563Z,54.19
2022-08-23T12:48:18.558Z,54.36
2022-08-23T12:49:18.552Z,54.38
2022-08-23T12:50:18.565Z,54.38
2022-08-23T12:51:18.555Z,54.48
2022-08-23T12:52:19.340Z,54.38
2022-08-23T12:53:18.500Z,54.38
2022-08-23T12:54:18.490Z,54.38
2022-08-23T12:55:18.515Z,54.77